Time;durP1;ratioP1;P1;durP2;ratioP2;P2;SDS_P1;SDS_P2;PMS_P1;PMS_P2;Temp;Humidity;BMP_temperature;BMP_pressure;BME280_temperature;BME280_humidity;BME280_pressure;Samples;Min_cycle;Max_cycle;Signal;HPM_P1;HPM_P2
2023/06/24 00:02:02;;;;;;;4.78;1.23;;;18.80;99.90;;;;;;5051058;28;20049;-61
2023/06/24 00:04:30;;;;;;;4.97;1.83;;;18.80;99.90;;;;;;5059471;28;20055;-60
2023/06/24 00:07:00;;;;;;;4.38;1.40;;;18.70;99.90;;;;;;5053088;28;20409;-60
2023/06/24 00:09:28;;;;;;;5.60;1.30;;;18.70;99.90;;;;;;5063917;28;20057;-61
2023/06/24 00:12:00;;;;;;;7.07;1.40;;;18.70;99.90;;;;;;5067152;28;20396;-62
2023/06/24 00:14:28;;;;;;;1.30;1.20;;;18.60;99.90;;;;;;5051835;28;20045;-61
2023/06/24 00:16:56;;;;;;;1.55;1.13;;;18.50;99.90;;;;;;5065018;28;20056;-63
2023/06/24 00:19:25;;;;;;;2.63;1.15;;;18.50;99.90;;;;;;5067766;28;20044;-60
2023/06/24 00:21:53;;;;;;;1.50;1.38;;;18.50;99.90;;;;;;5068139;28;20055;-62
2023/06/24 00:24:25;;;;;;;2.83;1.42;;;18.40;99.90;;;;;;5062240;28;20037;-62
2023/06/24 00:26:54;;;;;;;3.10;1.42;;;18.50;99.90;;;;;;5047773;28;20071;-60
2023/06/24 00:29:21;;;;;;;1.77;1.40;;;18.40;99.90;;;;;;5060650;28;20045;-65
2023/06/24 00:31:49;;;;;;;5.97;1.52;;;18.40;99.90;;;;;;5056439;28;20056;-60
2023/06/24 00:34:19;;;;;;;2.75;1.45;;;18.50;99.90;;;;;;5071400;28;20044;-62
2023/06/24 00:36:47;;;;;;;1.42;1.30;;;18.50;99.90;;;;;;5072556;28;20052;-59
2023/06/24 00:39:15;;;;;;;2.47;1.30;;;18.50;99.90;;;;;;5066346;28;20044;-60
2023/06/24 00:41:43;;;;;;;4.85;1.60;;;18.50;99.90;;;;;;5063165;28;20408;-61
2023/06/24 00:44:11;;;;;;;2.92;1.50;;;18.50;99.90;;;;;;5063497;28;20373;-60
2023/06/24 00:46:39;;;;;;;3.05;1.33;;;18.50;99.90;;;;;;5057025;28;20048;-60
2023/06/24 00:49:07;;;;;;;1.98;1.30;;;18.50;99.90;;;;;;5046992;28;20041;-62
2023/06/24 00:51:36;;;;;;;2.30;1.70;;;18.60;99.90;;;;;;5044383;28;20400;-61
2023/06/24 00:54:04;;;;;;;2.00;1.30;;;18.60;99.90;;;;;;5053191;28;20389;-62
2023/06/24 00:56:38;;;;;;;3.13;1.38;;;18.60;99.90;;;;;;5063324;28;20395;-60
2023/06/24 00:59:07;;;;;;;3.65;1.85;;;18.60;99.90;;;;;;5064032;28;20051;-61
2023/06/24 01:01:35;;;;;;;2.67;1.52;;;18.60;99.90;;;;;;5054268;28;20045;-61
2023/06/24 01:04:03;;;;;;;2.88;1.58;;;18.60;99.90;;;;;;5054042;28;20051;-60
2023/06/24 01:06:33;;;;;;;3.67;1.77;;;18.60;99.90;;;;;;5064651;28;20056;-61
2023/06/24 01:09:02;;;;;;;4.43;1.73;;;18.60;99.90;;;;;;5059075;28;20049;-60
2023/06/24 01:11:30;;;;;;;3.65;1.45;;;18.60;99.90;;;;;;5063359;28;20041;-61
2023/06/24 01:13:58;;;;;;;2.40;1.20;;;18.60;99.90;;;;;;5072390;28;20040;-60
2023/06/24 01:16:30;;;;;;;2.97;1.70;;;18.70;99.90;;;;;;5080657;28;20053;-61
2023/06/24 01:19:08;;;;;;;1.60;1.40;;;18.60;99.90;;;;;;5061101;28;20048;-60
2023/06/24 01:22:11;;;;;;;5.45;1.40;;;18.60;99.90;;;;;;5066516;28;20041;-60
2023/06/24 01:24:42;;;;;;;3.15;1.70;;;18.60;99.90;;;;;;5065915;28;20439;-59
2023/06/24 01:27:27;;;;;;;3.22;1.55;;;18.60;99.90;;;;;;5067485;28;20049;-60
2023/06/24 01:30:17;;;;;;;3.33;1.33;;;18.60;99.90;;;;;;5067443;28;20053;-60
2023/06/24 01:32:53;;;;;;;5.13;1.85;;;18.50;99.90;;;;;;5064810;28;20056;-60
2023/06/24 01:35:28;;;;;;;1.60;1.50;;;18.50;99.90;;;;;;5083762;28;20082;-60
2023/06/24 01:38:00;;;;;;;3.00;1.20;;;18.50;99.90;;;;;;5087133;28;20048;-63
2023/06/24 01:40:49;;;;;;;3.40;1.48;;;18.50;99.90;;;;;;5050005;28;20041;-60
2023/06/24 01:43:21;;;;;;;4.93;2.00;;;18.50;99.90;;;;;;5049162;28;20056;-59
2023/06/24 01:45:53;;;;;;;4.53;1.52;;;18.40;99.90;;;;;;5039540;28;20052;-62
2023/06/24 01:48:27;;;;;;;3.45;1.48;;;18.40;99.90;;;;;;5056273;28;20045;-61
2023/06/24 01:50:59;;;;;;;5.22;1.70;;;18.40;99.90;;;;;;5062098;28;20539;-62
2023/06/24 01:53:28;;;;;;;4.95;1.80;;;18.40;99.90;;;;;;5053865;28;20041;-60
2023/06/24 01:56:00;;;;;;;2.22;1.75;;;18.40;99.90;;;;;;5052624;28;20044;-60
2023/06/24 01:58:30;;;;;;;5.22;1.60;;;18.40;99.90;;;;;;5038815;28;20052;-61
2023/06/24 02:00:59;;;;;;;3.33;1.50;;;18.40;99.90;;;;;;5067077;28;20041;-60
2023/06/24 02:03:28;;;;;;;2.97;1.88;;;18.40;99.90;;;;;;5073764;28;20053;-60
2023/06/24 02:05:57;;;;;;;4.28;1.75;;;18.40;99.90;;;;;;5056561;28;20428;-60
2023/06/24 02:08:28;;;;;;;2.70;1.98;;;18.40;99.90;;;;;;5055172;28;20055;-60
2023/06/24 02:10:59;;;;;;;4.47;1.88;;;18.40;99.90;;;;;;5073511;28;20056;-61
2023/06/24 02:13:32;;;;;;;2.42;1.38;;;18.40;99.90;;;;;;5057700;28;20037;-60
2023/06/24 02:16:02;;;;;;;4.75;2.03;;;18.50;99.90;;;;;;5053579;28;20045;-61
2023/06/24 02:18:30;;;;;;;3.33;1.73;;;18.50;99.90;;;;;;5038679;28;20051;-61
2023/06/24 02:20:59;;;;;;;5.35;2.05;;;18.50;99.90;;;;;;5071950;28;20396;-66
2023/06/24 02:23:28;;;;;;;3.15;1.88;;;18.40;99.90;;;;;;5073463;28;20048;-64
2023/06/24 02:25:57;;;;;;;3.47;2.05;;;18.50;99.90;;;;;;5067467;28;20488;-63
2023/06/24 02:28:25;;;;;;;3.67;2.20;;;18.50;99.90;;;;;;5058867;28;20041;-63
2023/06/24 02:30:54;;;;;;;3.30;1.70;;;18.40;99.90;;;;;;5068096;28;20060;-61
2023/06/24 02:33:21;;;;;;;4.78;2.33;;;18.50;99.90;;;;;;5058885;28;20033;-61
2023/06/24 02:35:49;;;;;;;4.20;1.90;;;18.50;99.90;;;;;;5090358;28;20048;-61
2023/06/24 02:38:17;;;;;;;4.38;1.80;;;18.50;99.90;;;;;;5053214;28;20499;-61
2023/06/24 02:40:48;;;;;;;2.65;2.25;;;18.50;99.90;;;;;;5071785;28;20052;-60
2023/06/24 02:43:17;;;;;;;3.70;2.20;;;18.50;99.90;;;;;;5072717;28;20392;-60
2023/06/24 02:45:47;;;;;;;6.55;2.42;;;18.50;99.90;;;;;;5071525;28;20377;-60
2023/06/24 02:48:16;;;;;;;3.08;2.13;;;18.50;99.90;;;;;;5069889;28;20032;-61
2023/06/24 02:50:44;;;;;;;4.97;2.47;;;18.50;99.90;;;;;;5072615;28;20048;-60
2023/06/24 02:53:14;;;;;;;4.63;2.20;;;18.50;99.90;;;;;;5071218;28;20053;-61
2023/06/24 02:55:42;;;;;;;5.72;2.10;;;18.50;99.90;;;;;;5071533;28;20055;-60
2023/06/24 02:58:10;;;;;;;3.35;2.20;;;18.50;99.90;;;;;;5069845;28;20044;-60
2023/06/24 03:01:00;;;;;;;5.38;2.65;;;18.50;99.90;;;;;;5068469;28;20037;-60
2023/06/24 03:03:49;;;;;;;;;;;18.40;99.90;;;;;;5055339;28;20128;-60
2023/06/24 03:06:18;;;;;;;7.18;2.50;;;18.40;99.90;;;;;;5071227;28;19920;-59
2023/06/24 03:08:48;;;;;;;2.97;2.20;;;18.40;99.90;;;;;;5070544;28;20399;-60
2023/06/24 03:11:18;;;;;;;4.93;1.98;;;18.30;99.90;;;;;;5066928;28;20036;-60
2023/06/24 03:13:45;;;;;;;5.82;2.10;;;18.30;99.90;;;;;;5070809;28;20055;-60
2023/06/24 03:16:22;;;;;;;4.80;1.80;;;18.30;99.90;;;;;;5071039;28;20048;-60
2023/06/24 03:19:02;;;;;;;6.32;2.10;;;18.30;99.90;;;;;;5050558;28;20059;-60
2023/06/24 03:21:30;;;;;;;3.63;2.00;;;18.20;99.90;;;;;;5051063;28;20049;-64
2023/06/24 03:24:06;;;;;;;1.92;1.67;;;18.30;99.90;;;;;;5067715;28;20669;-62
2023/06/24 03:26:36;;;;;;;5.03;2.00;;;18.20;99.90;;;;;;5051150;28;20048;-62
2023/06/24 03:29:07;;;;;;;3.90;2.15;;;18.20;99.90;;;;;;5054469;28;20040;-65
2023/06/24 03:31:35;;;;;;;4.82;2.00;;;18.20;99.90;;;;;;5060959;28;20052;-61
2023/06/24 03:34:03;;;;;;;2.95;2.33;;;18.20;99.90;;;;;;5050803;28;20040;-66
2023/06/24 03:36:34;;;;;;;6.28;2.55;;;18.20;99.90;;;;;;5049773;28;20041;-65
2023/06/24 03:39:03;;;;;;;5.03;2.28;;;18.20;99.90;;;;;;5058511;28;20059;-64
2023/06/24 03:41:31;;;;;;;4.60;2.38;;;18.20;99.90;;;;;;5070657;28;20396;-64
2023/06/24 03:43:59;;;;;;;4.18;2.13;;;18.20;99.90;;;;;;5070589;28;20044;-67
2023/06/24 03:46:28;;;;;;;3.58;2.10;;;18.20;99.90;;;;;;5065836;28;20386;-67
2023/06/24 03:48:56;;;;;;;4.30;2.40;;;18.20;99.90;;;;;;5057330;28;20416;-67
2023/06/24 03:51:24;;;;;;;4.50;2.90;;;18.20;99.90;;;;;;5070508;28;20048;-68
2023/06/24 03:53:52;;;;;;;5.25;2.67;;;18.20;99.90;;;;;;5070493;28;20397;-67
2023/06/24 03:56:20;;;;;;;5.03;2.67;;;18.20;99.90;;;;;;5060911;28;20044;-68
2023/06/24 03:58:48;;;;;;;3.50;2.08;;;18.10;99.90;;;;;;5054376;28;20055;-68
2023/06/24 04:01:19;;;;;;;3.28;2.33;;;18.10;99.90;;;;;;5063274;28;20049;-59
2023/06/24 04:03:47;;;;;;;4.60;2.40;;;18.10;99.90;;;;;;5051234;28;20049;-60
2023/06/24 04:06:15;;;;;;;3.90;2.63;;;18.10;99.90;;;;;;5051607;28;20405;-68
2023/06/24 04:08:43;;;;;;;5.85;3.05;;;18.10;99.90;;;;;;5054894;28;20041;-60
2023/06/24 04:11:11;;;;;;;4.15;2.58;;;18.10;99.90;;;;;;5065974;28;20048;-60
2023/06/24 04:13:39;;;;;;;7.20;3.10;;;18.10;99.90;;;;;;5070421;28;20041;-68
2023/06/24 04:16:07;;;;;;;5.28;3.45;;;18.10;99.90;;;;;;5053488;28;20048;-60
2023/06/24 04:18:37;;;;;;;5.90;2.97;;;18.10;99.90;;;;;;5069965;28;20511;-60
2023/06/24 04:21:04;;;;;;;;;;;18.10;99.90;;;;;;5069349;28;20067;-59
2023/06/24 04:23:33;;;;;;;5.85;3.45;;;18.10;99.90;;;;;;5050133;28;19928;-66
2023/06/24 04:26:00;;;;;;;8.60;3.33;;;18.10;99.90;;;;;;5051264;28;20062;-60
2023/06/24 04:28:28;;;;;;;7.13;3.38;;;18.10;99.90;;;;;;5051123;28;20041;-60
2023/06/24 04:30:56;;;;;;;5.45;3.17;;;18.10;99.90;;;;;;5066083;28;20041;-69
2023/06/24 04:33:24;;;;;;;5.88;3.60;;;18.00;99.90;;;;;;5050843;28;20052;-64
2023/06/24 04:35:52;;;;;;;9.30;3.47;;;18.10;99.90;;;;;;5062239;28;20049;-62
2023/06/24 04:38:22;;;;;;;6.32;3.75;;;18.00;99.90;;;;;;5052347;28;20033;-63
2023/06/24 04:40:50;;;;;;;5.90;3.23;;;18.00;99.90;;;;;;5069956;28;20044;-61
2023/06/24 04:43:18;;;;;;;7.35;3.08;;;18.00;99.90;;;;;;5071029;28;20316;-65
2023/06/24 04:45:46;;;;;;;6.00;3.60;;;18.00;99.90;;;;;;5062658;28;20401;-62
2023/06/24 04:48:13;;;;;;;9.23;4.20;;;18.00;99.90;;;;;;5047757;28;20623;-60
2023/06/24 04:50:41;;;;;;;7.75;3.95;;;18.00;99.90;;;;;;5070386;28;20052;-60
2023/06/24 04:53:09;;;;;;;6.88;3.40;;;18.00;99.90;;;;;;5071404;28;20480;-60
2023/06/24 04:55:37;;;;;;;7.43;3.65;;;18.00;99.90;;;;;;5071427;28;20045;-62
2023/06/24 04:58:05;;;;;;;8.95;3.70;;;18.00;99.90;;;;;;5059958;28;20049;-60
2023/06/24 05:00:33;;;;;;;5.47;3.80;;;18.00;99.90;;;;;;5069308;28;20533;-62
2023/06/24 05:03:01;;;;;;;5.68;3.28;;;18.00;99.90;;;;;;5052719;28;20048;-60
2023/06/24 05:05:29;;;;;;;7.05;3.72;;;17.90;99.90;;;;;;5064387;28;20051;-61
2023/06/24 05:07:59;;;;;;;9.02;4.30;;;18.00;99.90;;;;;;5074987;28;20044;-62
2023/06/24 05:10:27;;;;;;;6.68;4.45;;;18.00;99.90;;;;;;5073953;28;20048;-60
2023/06/24 05:12:55;;;;;;;11.65;4.82;;;18.10;99.90;;;;;;5067846;28;20049;-62
2023/06/24 05:15:22;;;;;;;8.35;3.92;;;18.10;99.90;;;;;;5063394;28;20416;-61
2023/06/24 05:17:50;;;;;;;9.43;5.35;;;18.20;99.90;;;;;;5054873;28;20059;-60
2023/06/24 05:20:20;;;;;;;6.55;3.88;;;18.20;99.90;;;;;;5058957;28;20052;-61
2023/06/24 05:22:48;;;;;;;14.30;4.60;;;18.20;99.90;;;;;;5042201;28;20049;-59
2023/06/24 05:25:16;;;;;;;8.95;4.40;;;18.20;99.90;;;;;;5059330;28;20056;-60
2023/06/24 05:27:46;;;;;;;5.63;3.35;;;18.20;99.90;;;;;;5065804;28;20041;-62
2023/06/24 05:30:14;;;;;;;7.43;3.80;;;18.20;99.90;;;;;;5067245;28;20060;-60
2023/06/24 05:32:42;;;;;;;5.85;4.13;;;18.30;99.90;;;;;;5066062;28;20127;-61
2023/06/24 05:35:11;;;;;;;11.05;4.40;;;18.30;99.90;;;;;;5066418;28;20068;-60
2023/06/24 05:37:39;;;;;;;7.00;3.95;;;18.30;99.90;;;;;;5050854;28;20049;-61
2023/06/24 05:40:07;;;;;;;8.95;4.07;;;18.40;99.90;;;;;;5064158;28;20048;-65
2023/06/24 05:42:35;;;;;;;6.50;4.45;;;18.40;99.90;;;;;;5049189;28;20053;-64
2023/06/24 05:45:03;;;;;;;6.10;4.47;;;18.40;99.90;;;;;;5066409;28;20049;-67
2023/06/24 05:47:31;;;;;;;8.65;4.22;;;18.40;99.90;;;;;;5065108;28;20417;-59
2023/06/24 05:49:59;;;;;;;9.35;3.80;;;18.50;99.90;;;;;;5066890;28;20477;-61
2023/06/24 05:52:28;;;;;;;7.35;4.68;;;18.50;99.90;;;;;;5052591;28;20045;-60
2023/06/24 05:54:56;;;;;;;7.13;4.25;;;18.50;99.90;;;;;;5063127;28;20397;-61
2023/06/24 05:57:27;;;;;;;6.13;4.18;;;18.60;99.90;;;;;;5053268;28;20044;-61
2023/06/24 05:59:54;;;;;;;5.95;4.38;;;18.60;99.90;;;;;;5069329;28;20048;-60
2023/06/24 06:02:22;;;;;;;6.28;4.13;;;18.70;99.90;;;;;;5054410;28;20454;-59
2023/06/24 06:04:50;;;;;;;6.68;3.88;;;18.70;99.90;;;;;;5072378;28;20044;-62
2023/06/24 06:07:18;;;;;;;6.20;3.75;;;18.70;99.90;;;;;;5061538;28;20044;-60
2023/06/24 06:09:45;;;;;;;8.15;3.78;;;18.80;99.90;;;;;;5068948;28;20492;-60
2023/06/24 06:12:13;;;;;;;6.63;4.18;;;18.80;99.90;;;;;;5061215;28;20060;-59
2023/06/24 06:14:41;;;;;;;7.88;3.90;;;18.80;99.90;;;;;;5066423;28;20203;-60
2023/06/24 06:17:08;;;;;;;6.82;4.00;;;18.90;99.90;;;;;;5066808;28;20048;-60
2023/06/24 06:19:36;;;;;;;7.03;3.83;;;18.90;99.90;;;;;;5069958;28;20040;-60
2023/06/24 06:22:04;;;;;;;6.28;4.05;;;18.90;99.90;;;;;;5054620;28;20049;-62
2023/06/24 06:24:33;;;;;;;7.38;4.15;;;18.90;99.90;;;;;;5060595;28;20052;-59
2023/06/24 06:27:00;;;;;;;7.72;3.35;;;19.00;99.90;;;;;;5068913;28;20052;-60
2023/06/24 06:29:29;;;;;;;5.68;3.42;;;19.00;99.90;;;;;;5063132;28;20049;-68
2023/06/24 06:31:57;;;;;;;11.57;4.45;;;19.10;99.90;;;;;;5062092;28;20056;-61
2023/06/24 06:34:25;;;;;;;6.55;3.55;;;19.20;99.90;;;;;;5069491;28;20053;-68
2023/06/24 06:36:52;;;;;;;9.80;3.95;;;19.20;99.90;;;;;;5063971;28;20045;-60
2023/06/24 06:39:20;;;;;;;5.72;3.53;;;19.20;99.90;;;;;;5067596;28;20048;-61
2023/06/24 06:41:47;;;;;;;5.00;3.30;;;19.30;99.90;;;;;;5066983;28;20626;-60
2023/06/24 06:44:16;;;;;;;4.85;3.10;;;19.30;99.90;;;;;;5064809;28;20044;-60
2023/06/24 06:46:44;;;;;;;7.03;4.07;;;19.40;99.90;;;;;;5054959;28;20049;-69
2023/06/24 06:49:11;;;;;;;6.30;3.20;;;19.40;99.90;;;;;;5065101;28;20052;-61
2023/06/24 06:51:39;;;;;;;5.53;3.92;;;19.50;99.90;;;;;;5063805;28;20045;-66
2023/06/24 06:54:06;;;;;;;6.43;3.28;;;19.60;99.90;;;;;;5061050;28;20049;-60
2023/06/24 06:56:34;;;;;;;4.43;2.83;;;19.70;99.90;;;;;;5069432;28;20056;-60
2023/06/24 06:59:02;;;;;;;4.55;3.40;;;19.80;99.90;;;;;;5067176;28;20052;-60
2023/06/24 07:01:30;;;;;;;4.43;2.70;;;19.90;99.90;;;;;;5056497;28;20051;-61
2023/06/24 07:03:57;;;;;;;6.15;3.08;;;19.90;99.90;;;;;;5058947;28;20119;-60
2023/06/24 07:06:25;;;;;;;5.22;2.92;;;20.10;99.90;;;;;;5065161;28;20084;-61
2023/06/24 07:08:53;;;;;;;3.88;2.50;;;20.10;99.90;;;;;;5068277;28;20052;-60
2023/06/24 07:11:21;;;;;;;6.07;2.75;;;20.20;99.90;;;;;;5068689;28;20052;-68
2023/06/24 07:13:50;;;;;;;3.80;2.55;;;20.20;99.90;;;;;;5077306;28;20051;-60
2023/06/24 07:16:18;;;;;;;3.13;2.25;;;20.20;99.90;;;;;;5088126;28;20073;-60
2023/06/24 07:18:46;;;;;;;4.22;2.33;;;20.30;99.90;;;;;;5067158;28;20048;-60
2023/06/24 07:21:13;;;;;;;3.17;2.45;;;20.30;99.90;;;;;;5046748;28;20049;-60
2023/06/24 07:23:41;;;;;;;4.10;2.30;;;20.40;99.90;;;;;;5053156;28;20053;-61
2023/06/24 07:26:09;;;;;;;5.15;2.08;;;20.40;99.90;;;;;;5064134;28;20048;-62
2023/06/24 07:28:37;;;;;;;2.30;1.90;;;20.50;99.90;;;;;;5066058;28;20045;-61
2023/06/24 07:31:05;;;;;;;3.70;2.08;;;20.50;99.90;;;;;;5060573;28;20385;-61
2023/06/24 07:33:33;;;;;;;3.67;2.10;;;20.60;99.90;;;;;;5075291;28;20055;-61
2023/06/24 07:36:01;;;;;;;6.07;2.20;;;20.60;99.90;;;;;;5088990;28;20048;-60
2023/06/24 07:38:29;;;;;;;2.60;1.90;;;20.70;99.90;;;;;;5072219;28;20059;-61
2023/06/24 07:40:57;;;;;;;2.40;1.55;;;20.80;99.90;;;;;;5069833;28;20059;-61
2023/06/24 07:43:25;;;;;;;1.88;1.38;;;20.90;99.90;;;;;;5066236;28;20047;-64
2023/06/24 07:45:52;;;;;;;3.10;1.40;;;21.10;99.90;;;;;;5064371;28;20045;-62
2023/06/24 07:48:20;;;;;;;3.20;1.40;;;21.20;99.90;;;;;;5057932;28;20060;-62
2023/06/24 07:50:49;;;;;;;1.95;1.50;;;21.30;99.90;;;;;;5068153;28;20055;-60
2023/06/24 07:53:16;;;;;;;2.30;1.40;;;21.40;99.90;;;;;;5054982;28;20041;-60
2023/06/24 07:55:44;;;;;;;1.40;1.10;;;21.40;99.90;;;;;;5059347;28;20048;-61
2023/06/24 07:58:12;;;;;;;2.00;0.90;;;21.40;99.90;;;;;;5067695;28;20045;-60
2023/06/24 08:00:40;;;;;;;1.70;1.10;;;21.40;99.90;;;;;;5060806;28;20045;-61
2023/06/24 08:03:09;;;;;;;1.73;1.20;;;21.40;99.90;;;;;;5070600;28;20048;-62
2023/06/24 08:05:38;;;;;;;1.60;1.20;;;21.40;99.90;;;;;;5088473;28;20506;-60
2023/06/24 08:08:08;;;;;;;3.00;1.02;;;21.40;99.90;;;;;;5064992;28;20048;-61
2023/06/24 08:10:35;;;;;;;1.05;1.00;;;21.50;99.90;;;;;;5060918;28;20044;-62
2023/06/24 08:13:03;;;;;;;0.93;0.80;;;21.50;99.90;;;;;;5065941;28;20048;-64
2023/06/24 08:15:31;;;;;;;1.40;0.90;;;21.60;99.90;;;;;;5047648;28;20052;-62
2023/06/24 08:17:59;;;;;;;1.88;1.08;;;21.70;99.90;;;;;;5061769;28;20071;-61
2023/06/24 08:20:28;;;;;;;1.52;1.00;;;21.70;99.90;;;;;;5064518;28;20492;-60
2023/06/24 08:22:56;;;;;;;1.45;0.70;;;21.90;99.90;;;;;;5062809;28;20614;-62
2023/06/24 08:25:23;;;;;;;1.17;0.90;;;22.00;99.90;;;;;;5056584;28;20278;-61
2023/06/24 08:27:51;;;;;;;0.75;0.73;;;22.00;99.90;;;;;;5048134;28;20049;-61
2023/06/24 08:30:19;;;;;;;1.08;0.85;;;22.10;99.90;;;;;;5059979;28;20064;-60
2023/06/24 08:32:47;;;;;;;1.50;0.70;;;22.10;99.90;;;;;;5048773;28;20548;-64
2023/06/24 08:35:15;;;;;;;0.88;0.88;;;22.00;99.90;;;;;;5077853;28;20040;-60
2023/06/24 08:37:42;;;;;;;0.82;0.80;;;22.00;99.90;;;;;;5076194;28;20040;-61
2023/06/24 08:40:10;;;;;;;0.80;0.80;;;22.00;99.90;;;;;;5067898;28;20393;-61
2023/06/24 08:42:38;;;;;;;1.65;0.77;;;22.10;99.90;;;;;;5065134;28;20047;-66
2023/06/24 08:45:06;;;;;;;2.22;0.90;;;22.10;99.90;;;;;;5066232;28;20048;-64
2023/06/24 08:47:35;;;;;;;0.77;0.77;;;22.10;99.90;;;;;;5062678;28;20043;-68
2023/06/24 08:50:15;;;;;;;1.27;0.50;;;22.30;99.90;;;;;;5055119;28;20488;-60
2023/06/24 08:52:50;;;;;;;0.65;0.65;;;22.50;99.90;;;;;;5053771;28;20060;-61
2023/06/24 08:55:22;;;;;;;1.92;0.70;;;22.70;99.90;;;;;;5050188;28;20037;-64
2023/06/24 08:57:57;;;;;;;0.75;0.70;;;22.90;99.90;;;;;;5058298;28;20549;-60
2023/06/24 09:00:26;;;;;;;0.73;0.60;;;23.00;99.90;;;;;;5067479;28;20048;-63
2023/06/24 09:02:55;;;;;;;1.33;0.63;;;23.10;99.90;;;;;;5049651;28;20037;-61
2023/06/24 09:05:24;;;;;;;1.42;0.82;;;23.20;99.90;;;;;;5086736;28;20055;-60
2023/06/24 09:07:51;;;;;;;2.08;0.60;;;23.10;99.90;;;;;;5066933;28;20049;-61
2023/06/24 09:10:36;;;;;;;2.47;0.77;;;23.10;99.90;;;;;;5065243;28;20048;-62
2023/06/24 09:13:06;;;;;;;0.82;0.70;;;23.10;99.90;;;;;;5065925;28;20045;-62
2023/06/24 09:15:38;;;;;;;1.00;0.63;;;23.10;99.90;;;;;;5066476;28;20056;-69
2023/06/24 09:18:05;;;;;;;1.58;0.80;;;23.00;99.90;;;;;;5067183;28;20048;-62
2023/06/24 09:20:39;;;;;;;2.58;0.60;;;23.00;99.90;;;;;;5055991;28;20053;-64
2023/06/24 09:23:07;;;;;;;1.60;0.80;;;23.00;99.90;;;;;;5047571;28;20060;-62
2023/06/24 09:25:35;;;;;;;2.42;1.60;;;23.00;99.90;;;;;;5065814;28;20047;-61
2023/06/24 09:28:03;;;;;;;2.95;1.50;;;23.10;99.90;;;;;;5062356;28;20043;-61
2023/06/24 09:30:31;;;;;;;2.83;1.73;;;23.10;99.90;;;;;;5048292;28;20045;-61
2023/06/24 09:32:59;;;;;;;4.47;1.20;;;23.10;99.90;;;;;;5047497;28;20056;-63
2023/06/24 09:35:26;;;;;;;2.75;0.98;;;23.20;99.90;;;;;;5066086;28;20912;-63
2023/06/24 09:37:56;;;;;;;0.98;0.75;;;23.20;99.90;;;;;;5056353;28;20036;-65
2023/06/24 09:40:25;;;;;;;0.95;0.90;;;23.30;99.90;;;;;;5050916;28;20052;-62
2023/06/24 09:43:02;;;;;;;0.60;0.60;;;23.40;99.90;;;;;;5062158;28;20385;-62
2023/06/24 09:45:30;;;;;;;1.33;0.80;;;23.50;99.90;;;;;;5058693;28;20048;-62
2023/06/24 09:47:58;;;;;;;0.82;0.57;;;23.60;99.90;;;;;;5057033;28;20483;-62
2023/06/24 09:50:26;;;;;;;0.80;0.80;;;23.70;99.90;;;;;;5069501;28;20044;-62
2023/06/24 09:52:57;;;;;;;1.02;0.65;;;23.80;99.90;;;;;;5069003;28;20376;-62
2023/06/24 09:55:25;;;;;;;1.60;0.70;;;23.80;99.90;;;;;;5070525;28;20059;-61
2023/06/24 09:57:53;;;;;;;1.77;0.98;;;23.80;99.90;;;;;;5069256;28;20381;-62
2023/06/24 10:00:22;;;;;;;1.85;0.73;;;23.70;99.90;;;;;;5077827;28;20583;-62
2023/06/24 10:02:54;;;;;;;1.95;1.00;;;23.70;99.90;;;;;;5060932;28;20044;-62
2023/06/24 10:05:26;;;;;;;3.55;1.67;;;23.70;99.90;;;;;;5055211;28;20059;-61
2023/06/24 10:07:54;;;;;;;1.75;1.10;;;23.80;99.90;;;;;;5068486;28;20049;-64
2023/06/24 10:10:22;;;;;;;2.67;1.00;;;23.90;99.90;;;;;;5063686;28;20048;-62
2023/06/24 10:12:50;;;;;;;1.00;0.75;;;24.00;99.90;;;;;;5061551;28;20753;-62
2023/06/24 10:15:18;;;;;;;1.88;1.00;;;24.20;99.90;;;;;;5050256;28;20049;-61
2023/06/24 10:17:46;;;;;;;2.45;1.25;;;24.20;99.90;;;;;;5053643;28;20061;-62
2023/06/24 10:20:23;;;;;;;1.05;0.95;;;24.20;99.90;;;;;;5060215;28;20389;-62
2023/06/24 10:22:51;;;;;;;3.28;1.10;;;24.20;99.90;;;;;;5052996;28;20059;-65
2023/06/24 10:25:19;;;;;;;2.72;1.00;;;24.10;99.90;;;;;;5049558;28;20036;-64
2023/06/24 10:27:53;;;;;;;4.07;1.40;;;24.00;99.90;;;;;;5058602;28;20047;-61
2023/06/24 10:30:27;;;;;;;2.25;1.50;;;24.00;99.90;;;;;;5049347;28;20063;-61
2023/06/24 10:32:55;;;;;;;3.33;1.20;;;23.90;99.90;;;;;;5041900;28;20067;-69
2023/06/24 10:35:29;;;;;;;2.03;1.10;;;23.90;99.90;;;;;;5068394;28;20056;-65
2023/06/24 10:37:59;;;;;;;1.48;1.00;;;23.80;99.90;;;;;;5055705;28;20051;-62
2023/06/24 10:40:39;;;;;;;2.92;1.17;;;23.70;99.90;;;;;;5057608;28;20436;-62
2023/06/24 10:43:38;;;;;;;1.33;0.98;;;23.80;99.90;;;;;;5055907;28;20408;-68
2023/06/24 10:46:15;;;;;;;1.40;1.30;;;23.90;99.90;;;;;;5061394;28;20048;-61
2023/06/24 10:48:43;;;;;;;1.27;1.00;;;23.80;99.90;;;;;;5050633;28;20519;-62
2023/06/24 10:51:11;;;;;;;1.77;1.10;;;23.80;99.90;;;;;;5058551;28;20052;-61
2023/06/24 10:53:39;;;;;;;1.50;1.00;;;23.80;99.90;;;;;;5046333;28;20385;-62
2023/06/24 10:56:06;;;;;;;1.80;1.02;;;23.80;99.90;;;;;;5051075;28;20059;-63
2023/06/24 10:58:34;;;;;;;2.25;1.10;;;23.70;99.90;;;;;;5053973;28;20044;-62
2023/06/24 11:01:09;;;;;;;3.75;1.00;;;23.70;99.90;;;;;;5052691;28;20655;-61
2023/06/24 11:03:40;;;;;;;1.17;1.00;;;23.80;99.90;;;;;;5058525;28;20052;-61
2023/06/24 11:06:10;;;;;;;0.95;0.80;;;23.90;99.90;;;;;;5068276;28;20040;-61
2023/06/24 11:08:45;;;;;;;2.42;0.85;;;24.10;99.90;;;;;;5057282;28;20049;-60
2023/06/24 11:11:21;;;;;;;2.17;1.00;;;24.40;99.90;;;;;;5063935;28;20048;-61
2023/06/24 11:13:49;;;;;;;1.08;0.98;;;24.60;99.90;;;;;;5057865;28;20056;-61
2023/06/24 11:16:21;;;;;;;1.90;1.00;;;24.60;99.90;;;;;;5061165;28;20045;-60
2023/06/24 11:18:49;;;;;;;1.75;0.88;;;24.60;99.90;;;;;;5061023;28;20328;-60
2023/06/24 11:21:16;;;;;;;1.30;0.98;;;24.50;99.90;;;;;;5059307;28;20052;-62
2023/06/24 11:23:44;;;;;;;1.45;1.35;;;24.50;99.90;;;;;;5052642;28;20044;-61
2023/06/24 11:26:11;;;;;;;1.70;1.10;;;24.60;99.90;;;;;;5052462;28;20115;-61
2023/06/24 11:28:39;;;;;;;2.90;1.52;;;24.50;99.90;;;;;;5051939;28;20033;-60
2023/06/24 11:31:10;;;;;;;2.20;1.00;;;24.50;99.90;;;;;;5053849;28;20138;-61
2023/06/24 11:33:38;;;;;;;1.73;1.15;;;24.40;99.90;;;;;;5059799;28;20043;-61
2023/06/24 11:36:10;;;;;;;2.55;1.17;;;24.30;99.90;;;;;;5052269;28;20063;-60
2023/06/24 11:38:38;;;;;;;6.28;1.13;;;24.30;99.90;;;;;;5048515;28;20506;-60
2023/06/24 11:41:05;;;;;;;1.63;1.10;;;24.30;99.90;;;;;;5047024;28;20048;-60
2023/06/24 11:43:33;;;;;;;2.20;1.08;;;24.40;99.90;;;;;;5048581;28;20045;-61
2023/06/24 11:46:01;;;;;;;1.80;0.98;;;24.60;99.90;;;;;;5056483;28;20044;-60
2023/06/24 11:48:29;;;;;;;2.20;1.20;;;24.80;99.90;;;;;;5047695;28;20055;-65
2023/06/24 11:50:57;;;;;;;1.77;1.02;;;25.10;99.90;;;;;;5047339;28;20741;-65
2023/06/24 11:53:41;;;;;;;1.65;1.20;;;25.40;99.90;;;;;;5050995;28;20049;-61
2023/06/24 11:56:09;;;;;;;2.65;1.30;;;25.80;99.90;;;;;;5054836;28;20504;-61
2023/06/24 11:58:38;;;;;;;2.58;1.30;;;26.30;99.90;;;;;;5050825;28;20047;-63
2023/06/24 12:01:09;;;;;;;1.92;1.00;;;26.60;99.90;;;;;;5056231;28;20052;-61
2023/06/24 12:03:36;;;;;;;1.15;0.77;;;26.90;99.90;;;;;;5046347;28;20067;-61
2023/06/24 12:06:04;;;;;;;2.05;0.63;;;27.00;99.90;;;;;;5044862;28;20052;-60
2023/06/24 12:08:32;;;;;;;2.55;0.70;;;27.10;99.90;;;;;;5046490;28;20047;-60
2023/06/24 12:11:19;;;;;;;6.82;0.95;;;27.50;99.90;;;;;;5053243;28;20041;-60
2023/06/24 12:13:47;;;;;;;8.77;0.95;;;27.80;99.90;;;;;;5049191;28;20511;-62
2023/06/24 12:16:14;;;;;;;1.85;0.77;;;28.20;99.90;;;;;;5054594;28;20049;-62
2023/06/24 12:18:42;;;;;;;3.03;1.13;;;28.60;99.90;;;;;;5053602;28;20481;-61
2023/06/24 12:21:10;;;;;;;1.48;0.77;;;29.00;99.90;;;;;;5054290;28;20594;-62
2023/06/24 12:23:38;;;;;;;0.80;0.70;;;29.30;99.90;;;;;;5059202;28;20052;-61
2023/06/24 12:26:05;;;;;;;2.30;0.57;;;29.40;99.90;;;;;;5056024;28;20045;-61
2023/06/24 12:28:33;;;;;;;1.33;0.70;;;29.50;99.90;;;;;;5055851;28;20047;-62
2023/06/24 12:31:00;;;;;;;0.70;0.70;;;29.70;99.90;;;;;;5054770;28;20396;-61
2023/06/24 12:33:28;;;;;;;1.15;0.70;;;29.70;99.90;;;;;;5055541;28;20056;-67
2023/06/24 12:35:56;;;;;;;1.52;0.90;;;29.60;99.70;;;;;;5052240;28;20056;-64
2023/06/24 12:38:24;;;;;;;1.42;0.82;;;29.80;99.90;;;;;;5053701;28;20049;-65
2023/06/24 12:40:52;;;;;;;3.13;1.20;;;29.90;99.20;;;;;;5046577;28;20049;-64
2023/06/24 12:43:20;;;;;;;2.40;0.95;;;30.20;99.40;;;;;;5059027;28;20480;-63
2023/06/24 12:45:48;;;;;;;0.70;0.60;;;30.50;99.10;;;;;;5050872;28;20052;-64
2023/06/24 12:48:15;;;;;;;3.67;0.90;;;30.60;97.70;;;;;;5060962;28;20052;-65
2023/06/24 12:50:43;;;;;;;1.65;0.90;;;30.40;97.10;;;;;;5050066;28;20049;-63
2023/06/24 12:53:13;;;;;;;1.33;1.13;;;30.00;97.00;;;;;;5060898;28;20040;-63
2023/06/24 12:55:40;;;;;;;1.63;0.95;;;29.40;97.20;;;;;;5057656;28;20049;-63
2023/06/24 12:58:08;;;;;;;1.63;1.17;;;29.00;98.30;;;;;;5045183;28;20044;-61
2023/06/24 13:00:35;;;;;;;1.13;0.73;;;28.80;98.80;;;;;;5045616;28;20049;-61